Flight Track Log - Related Links

Times and Time Zones

All times are in EDT time to prevent confusion due to time zone crossing. See the USC110 flight status page for this flight to view local times or setup timezone preferences in your user account.

Time Position Orientation Groundspeed Altitude Reporting Facility
EDT Latitude Longitude Course Direction KTS MPH feet Rate Location/Type
Sun 03:00:25 PM 38.6333 -90.6833 142° Southeast 108 124 1,800  Level Gateway (St. Louis) TRACON
Sun 03:01:24 PM 38.6083 -90.6581 142° Southeast 112 129 2,400 683 Climbing Kansas City Center
Sun 03:02:28 PM 38.5814 -90.6231 135° Southeast 116 133 3,200 720 Climbing Kansas City Center
Sun 03:03:29 PM 38.5561 -90.5994 144° Southeast 115 132 3,900 645 Climbing Kansas City Center
Sun 03:04:29 PM 38.5308 -90.5692 137° Southeast 119 137 4,500 532 Climbing Kansas City Center
Sun 03:05:00 PM 38.4610 -90.3750 142° Southeast  Level Estimated
Sun 03:05:33 PM 38.5039 -90.5383 138° Southeast 127 146 5,000  Level Kansas City Center
Sun 03:06:33 PM 38.4719 -90.5022 138° Southeast 143 165 5,000  Level Kansas City Center
Sun 03:07:37 PM 38.4319 -90.4522 136° Southeast 160 184 5,000  Level Kansas City Center
Sun 03:08:37 PM 38.4014 -90.4122 134° Southeast 161 185 5,000  Level Kansas City Center
Sun 03:09:41 PM 38.3689 -90.3750 138° Southeast 159 183 5,000  Level Kansas City Center
Sun 03:10:42 PM 38.3350 -90.3358 138° Southeast 161 185 5,000  Level Kansas City Center
Sun 03:11:44 PM 38.3014 -90.2969 138° Southeast 163 188 5,000  Level Kansas City Center
Sun 03:12:47 PM 38.2675 -90.2572 137° Southeast 165 190 5,000  Level Kansas City Center
Sun 03:13:48 PM 38.2278 -90.2097 137° Southeast 164 189 5,000  Level Kansas City Center
Sun 03:14:49 PM 38.1939 -90.1703 138° Southeast 165 190 5,000  Level Kansas City Center
Sun 03:15:53 PM 38.1603 -90.1317 138° Southeast 164 189 5,000  Level Kansas City Center
Sun 03:16:53 PM 38.1261 -90.0903 136° Southeast 167 192 5,000  Level Kansas City Center
Sun 03:17:55 PM 38.0944 -90.0511 136° Southeast 162 186 5,000  Level Kansas City Center
Sun 03:18:58 PM 38.0553 -90.0044 137° Southeast 164 189 5,000  Level Kansas City Center
Sun 03:20:00 PM 38.0181 -89.9597 137° Southeast 169 194 5,000 49 Level Kansas City Center
Sun 03:21:00 PM 37.9858 -89.9192 135° Southeast 164 189 5,100  Climbing Kansas City Center
Sun 03:22:04 PM 37.9514 -89.8811 139° Southeast 164 189 5,000  Descending Kansas City Center
Sun 03:23:05 PM 37.9153 -89.8394 138° Southeast 163 188 5,100 48 Climbing Kansas City Center
Sun 03:24:09 PM 37.8833 -89.7994 135° Southeast 162 186 5,100 -48 Level Kansas City Center
Sun 03:25:10 PM 37.8481 -89.7589 138° Southeast 160 184 5,000 -49 Descending Kansas City Center
Sun 03:26:11 PM 37.8142 -89.7192 137° Southeast 163 188 5,000 49 Level Kansas City Center
Sun 03:27:13 PM 37.7817 -89.6806 137° Southeast 163 188 5,100 48 Climbing Kansas City Center
Sun 03:28:17 PM 37.7483 -89.6439 139° Southeast 161 185 5,100  Level Kansas City Center
Sun 03:29:18 PM 37.7128 -89.6111 144° Southeast 160 184 5,100  Level Kansas City Center
Sun 03:30:19 PM 37.6786 -89.5733 139° Southeast 161 185 5,100  Level Kansas City Center
Sun 03:31:20 PM 37.6464 -89.5328 135° Southeast 162 186 5,100  Level Kansas City Center
Sun 03:32:23 PM 37.6064 -89.4822 135° Southeast 167 192 5,100 -48 Level Kansas City Center
Sun 03:33:24 PM 37.5714 -89.4406 137° Southeast 168 193 5,000  Descending Kansas City Center
Sun 03:34:28 PM 37.5356 -89.3997 138° Southeast 171 197 5,100  Climbing Kansas City Center
Sun 03:35:30 PM 37.5017 -89.3569 135° Southeast 172 198 5,000  Descending Kansas City Center
Sun 03:36:30 PM 37.4664 -89.3197 140° Southeast 168 193 5,100 49 Climbing Kansas City Center
Sun 03:37:33 PM 37.4328 -89.2783 136° Southeast 169 194 5,100  Level Kansas City Center
Sun 03:38:35 PM 37.3911 -89.2300 137° Southeast 169 194 5,100  Level Kansas City Center
Sun 03:39:39 PM 37.3553 -89.1928 140° Southeast 168 193 5,100  Level Kansas City Center
Sun 03:40:39 PM 37.3200 -89.1539 139° Southeast 167 192 5,100  Level Kansas City Center
Sun 03:41:32 PM 37.2925 -89.1211 137° Southeast 170 196 5,100  Level Memphis Center
Sun 03:42:32 PM 37.2544 -89.0800 139° Southeast 170 196 5,100  Level Memphis Center
Sun 03:43:32 PM 37.2186 -89.0389 138° Southeast 170 196 5,100  Level Memphis Center
Sun 03:44:32 PM 37.1869 -89.0003 136° Southeast 170 196 5,100  Level Memphis Center
Sun 03:45:32 PM 37.1489 -88.9594 139° Southeast 170 196 5,100 -50 Level Memphis Center
Sun 03:46:32 PM 37.1153 -88.9211 138° Southeast 170 196 5,000  Descending Memphis Center
Sun 03:47:32 PM 37.0794 -88.8825 139° Southeast 170 196 5,100 50 Climbing Memphis Center
Sun 03:48:32 PM 37.0433 -88.8392 136° Southeast 170 196 5,100  Level Memphis Center
Sun 03:49:32 PM 37.0097 -88.8008 138° Southeast 170 196 5,100  Level Memphis Center
Sun 03:50:32 PM 36.9758 -88.7625 138° Southeast 170 196 5,100  Level Memphis Center
Sun 03:51:32 PM 36.9397 -88.7192 136° Southeast 170 196 5,100  Level Memphis Center
Sun 03:52:32 PM 36.9058 -88.6833 140° Southeast 175 201 5,100  Level Memphis Center
Sun 03:53:32 PM 36.8700 -88.6428 138° Southeast 170 196 5,100  Level Memphis Center
Sun 03:54:32 PM 36.8361 -88.6019 136° Southeast 170 196 5,100 -50 Level Memphis Center
Sun 03:55:32 PM 36.8042 -88.5664 138° Southeast 170 196 5,000 -50 Descending Memphis Center
Sun 03:56:32 PM 36.7706 -88.5308 140° Southeast 165 190 5,000 50 Level Memphis Center
Sun 03:57:32 PM 36.7364 -88.4903 136° Southeast 160 184 5,100 50 Climbing Memphis Center
Sun 03:58:32 PM 36.7025 -88.4547 140° Southeast 160 184 5,100  Level Memphis Center
Sun 03:59:32 PM 36.6686 -88.4142 136° Southeast 160 184 5,100 -50 Level Memphis Center
Sun 04:00:32 PM 36.6347 -88.3764 138° Southeast 160 184 5,000  Descending Memphis Center
Sun 04:01:32 PM 36.5986 -88.3408 142° Southeast 160 184 5,100 50 Climbing Memphis Center
Sun 04:02:32 PM 36.5647 -88.3031 138° Southeast 160 184 5,100  Level Memphis Center
Sun 04:03:32 PM 36.5286 -88.2628 138° Southeast 160 184 5,100  Level Memphis Center
Sun 04:04:32 PM 36.4967 -88.2247 136° Southeast 160 184 5,100  Level Memphis Center
Sun 04:05:32 PM 36.4647 -88.1817 133° Southeast 160 184 5,100  Level Memphis Center
Sun 04:06:32 PM 36.4367 -88.1336 126° Southeast 160 184 5,100  Level Memphis Center
Sun 04:07:32 PM 36.4003 -88.0856 133° Southeast 165 190 5,100  Level Memphis Center
Sun 04:08:32 PM 36.3725 -88.0400 127° Southeast 170 196 5,100  Level Memphis Center
Sun 04:09:32 PM 36.3444 -87.9969 129° Southeast 170 196 5,100  Level Memphis Center
Sun 04:10:32 PM 36.3144 -87.9514 129° Southeast 164 189 5,100  Level Memphis Center
Sun 04:11:32 PM 36.2864 -87.9058 127° Southeast 164 189 5,100 -50 Level Memphis Center
Sun 04:12:32 PM 36.2544 -87.8631 133° Southeast 164 189 5,000  Descending Memphis Center
Sun 04:13:32 PM 36.2242 -87.8178 130° Southeast 164 189 5,100  Climbing Memphis Center
Sun 04:14:32 PM 36.2006 -87.7772 126° Southeast 164 189 5,000 -50 Descending Memphis Center
Sun 04:15:32 PM 36.1703 -87.7319 130° Southeast 164 189 5,000  Level Memphis Center
Sun 04:16:32 PM 36.1422 -87.6892 129° Southeast 164 189 5,000 50 Level Memphis Center
Sun 04:17:32 PM 36.1122 -87.6414 128° Southeast 164 189 5,100 50 Climbing Memphis Center
Sun 04:18:32 PM 36.0842 -87.5986 129° Southeast 164 189 5,100  Level Memphis Center
Sun 04:19:32 PM 36.0519 -87.5561 133° Southeast 159 183 5,100  Level Memphis Center
Sun 04:20:32 PM 36.0239 -87.5133 129° Southeast 159 183 5,100  Level Memphis Center
Sun 04:21:32 PM 35.9936 -87.4683 130° Southeast 159 183 5,100  Level Memphis Center
Sun 04:22:32 PM 35.9589 -87.4181 130° Southeast 159 183 5,100  Level Memphis Center
Sun 04:23:32 PM 35.9308 -87.3731 128° Southeast 164 189 5,100  Level Memphis Center
Sun 04:24:32 PM 35.9028 -87.3331 131° Southeast 159 183 5,100  Level Memphis Center
Sun 04:25:32 PM 35.8725 -87.2856 128° Southeast 159 183 5,100  Level Memphis Center
Sun 04:26:32 PM 35.8442 -87.2431 129° Southeast 159 183 5,100 -50 Level Memphis Center
Sun 04:27:32 PM 35.8139 -87.1981 130° Southeast 159 183 5,000  Descending Memphis Center
Sun 04:28:32 PM 35.7856 -87.1556 129° Southeast 159 183 5,100 50 Climbing Memphis Center
Sun 04:29:32 PM 35.7553 -87.1133 131° Southeast 164 189 5,100  Level Memphis Center
Sun 04:30:32 PM 35.7272 -87.0683 128° Southeast 164 189 5,100  Level Memphis Center
Sun 04:31:32 PM 35.6967 -87.0236 130° Southeast 164 189 5,100  Level Memphis Center
Sun 04:32:32 PM 35.6664 -86.9814 131° Southeast 164 189 5,100  Level Memphis Center
Sun 04:33:32 PM 35.6425 -86.9442 128° Southeast 159 183 5,100 -50 Level Memphis Center
Sun 04:34:32 PM 35.6119 -86.9019 132° Southeast 159 183 5,000  Descending Memphis Center
Sun 04:35:32 PM 35.5836 -86.8597 130° Southeast 159 183 5,100 50 Climbing Memphis Center
Sun 04:36:32 PM 35.5553 -86.8150 128° Southeast 159 183 5,100  Level Memphis Center
Sun 04:37:32 PM 35.5269 -86.7703 128° Southeast 165 190 5,100 -50 Level Memphis Center
Sun 04:38:32 PM 35.4964 -86.7258 130° Southeast 165 190 5,000  Descending Memphis Center
Sun 04:39:32 PM 35.4661 -86.6889 135° Southeast 160 184 5,100 50 Climbing Memphis Center
Sun 04:40:32 PM 35.4356 -86.6392 127° Southeast 160 184 5,100  Level Memphis Center
Sun 04:41:32 PM 35.4050 -86.5972 132° Southeast 160 184 5,100  Level Memphis Center
Sun 04:42:32 PM 35.3767 -86.5553 130° Southeast 160 184 5,100 -50 Level Memphis Center
Sun 04:43:32 PM 35.3461 -86.5108 130° Southeast 160 184 5,000  Descending Memphis Center
Sun 04:44:32 PM 35.3178 -86.4689 130° Southeast 160 184 5,100 50 Climbing Memphis Center
Sun 04:45:32 PM 35.2892 -86.4244 128° Southeast 170 196 5,100  Level Memphis Center
Sun 04:46:32 PM 35.2606 -86.3800 128° Southeast 164 189 5,100  Level Memphis Center
Sun 04:47:32 PM 35.2300 -86.3356 130° Southeast 164 189 5,100  Level Memphis Center
Sun 04:48:32 PM 35.1994 -86.2939 132° Southeast 164 189 5,100  Level Memphis Center
Sun 04:49:32 PM 35.1689 -86.2497 130° Southeast 164 189 5,100  Level Memphis Center
Sun 04:50:32 PM 35.1381 -86.2031 129° Southeast 164 189 5,100  Level Memphis Center
Sun 04:51:32 PM 35.1114 -86.1586 126° Southeast 164 189 5,100  Level Memphis Center
Sun 04:52:32 PM 35.0789 -86.1172 134° Southeast 164 189 5,100 -50 Level Memphis Center
Sun 04:53:32 PM 35.0522 -86.0728 126° Southeast 164 189 5,000  Descending Memphis Center
Sun 04:54:32 PM 35.0297 -86.0258 120° Southeast 159 183 5,100 50 Climbing Memphis Center
Sun 04:55:32 PM 35.0097 -85.9914 125° Southeast 159 183 5,100  Level Memphis Center
Sun 04:56:32 PM 34.9828 -85.9344 120° Southeast 159 183 5,100  Level Memphis Center
Sun 04:58:00 PM 34.9267 -85.8945 126° Southeast  Level FlightAware Approximate
Sun 05:03:20 PM 34.7875 -85.6550 130° Southeast 173 199 5,100  Level Atlanta Center
Sun 05:04:20 PM 34.7567 -85.6114 131° Southeast 168 193 5,000  Descending Atlanta Center
Sun 05:05:00 PM 34.7209 -85.6025 130° Southeast  Level FlightAware Approximate
Sun 05:05:20 PM 34.7281 -85.5703 130° Southeast 168 193 5,100  Level Atlanta Center
Sun 05:06:00 PM 34.6917 -85.5605 130° Southeast  Level FlightAware Approximate
Sun 05:06:20 PM 34.6972 -85.5294 133° Southeast 168 193 5,100  Level Atlanta Center
Sun 05:07:00 PM 34.6626 -85.5186 130° Southeast  Level FlightAware Approximate
Sun 05:07:20 PM 34.6686 -85.4936 134° Southeast 168 193 5,100  Level Atlanta Center
Sun 05:08:20 PM 34.6397 -85.4525 130° Southeast 168 193 5,100 -50 Level Atlanta Center
Sun 05:09:20 PM 34.6069 -85.4117 134° Southeast 168 193 5,000 -50 Descending Atlanta Center
Sun 05:10:20 PM 34.5803 -85.3708 128° Southeast 168 193 5,000  Level Atlanta Center
Sun 05:11:20 PM 34.5533 -85.3325 130° Southeast 157 181 5,000  Level Atlanta Center
Sun 05:12:20 PM 34.5267 -85.2994 134° Southeast 146 168 5,000  Level Atlanta Center
Sun 05:13:20 PM 34.4997 -85.2664 135° Southeast 141 162 5,000  Level Atlanta Center
Sun 05:14:20 PM 34.4731 -85.2331 134° Southeast 141 162 5,000  Level Atlanta Center
Sun 05:15:20 PM 34.4483 -85.1975 130° Southeast 141 162 5,000  Level Atlanta Center
Sun 05:16:20 PM 34.4217 -85.1619 132° Southeast 141 162 5,000  Level Atlanta Center
Sun 05:17:20 PM 34.3947 -85.1264 133° Southeast 148 170 5,000  Level Atlanta Center
Sun 05:18:20 PM 34.3639 -85.0856 132° Southeast 154 177 5,000  Level Atlanta Center
Sun 05:19:20 PM 34.3328 -85.0450 133° Southeast 159 183 5,000  Level Atlanta Center
Sun 05:20:20 PM 34.3039 -85.0044 131° Southeast 159 183 5,000  Level Atlanta Center
Sun 05:22:20 PM 34.2333 -84.9167 134° Southeast 162 186 5,000  Level Atlanta TRACON
Sun 05:23:20 PM 34.2000 -84.8833 140° Southeast 164 189 5,000  Level Atlanta TRACON
Sun 05:24:20 PM 34.1756 -84.8447 127° Southeast 164 189 5,000 -550 Level Atlanta Center
Sun 05:25:20 PM 34.1319 -84.8167 152° Southeast 169 194 3,900 -550 Descending Atlanta Center
Sun 05:26:20 PM 34.0947 -84.7864 146° Southeast 169 194 3,900  Level Atlanta Center
Sun 05:27:20 PM 34.0572 -84.7583 148° Southeast 163 188 3,900  Level Atlanta Center
Sun 05:28:20 PM 34.0197 -84.7331 151° Southeast 163 188 3,900 -67 Level Atlanta Center
Sun 05:30:20 PM 33.9500 -84.6667 142° Southeast 162 186 3,700 -333 Descending Atlanta TRACON
Sun 05:31:20 PM 33.9000 -84.6333 151° Southeast 181 208 2,900 -400 Descending Atlanta TRACON
Sun 05:32:20 PM 33.8667 -84.6167 157° South 159 183 2,900  Level Atlanta TRACON
Sun 05:33:21 PM 33.8333 -84.5833 140° Southeast 156 180 2,900 -496 Level Atlanta TRACON
Sun 05:34:21 PM 33.8000 -84.5333 129° Southeast 170 196 1,900 -700 Descending Atlanta TRACON
Sun 05:35:21 PM 33.7833 -84.5000 121° Southeast 152 175 1,500 -400 Descending Atlanta TRACON
Sun 05:37:00 PM 33.7791 -84.5214 148° Southeast  Level Estimated
Sun 05:44:00 PM 33.7791 -84.5214 320° Northwest  Level Estimated

Login

Don't have an account? Register now (free) for customized features, flight alerts, and more!